Time;durP1;ratioP1;P1;durP2;ratioP2;P2;SDS_P1;SDS_P2;PMS_P1;PMS_P2;Temp;Humidity;BMP_temperature;BMP_pressure;BME280_temperature;BME280_humidity;BME280_pressure;Samples;Min_cycle;Max_cycle;Signal;HPM_P1;HPM_P2
2021/04/18 00:02:05;;;;;;;36.98;21.33;;;;;;;2.49;75.99;100153.03;1709988;82;21147;-68
2021/04/18 00:04:32;;;;;;;46.58;24.10;;;;;;;2.59;76.11;100155.97;1714238;82;21541;-68
2021/04/18 00:06:59;;;;;;;37.98;23.62;;;;;;;2.64;76.03;100145.20;1716842;82;21176;-68
2021/04/18 00:09:26;;;;;;;45.40;26.52;;;;;;;2.71;76.06;100159.73;1714764;82;21195;-69
2021/04/18 00:11:53;;;;;;;44.50;27.70;;;;;;;2.77;75.85;100158.38;1714143;82;21427;-68
2021/04/18 00:14:20;;;;;;;59.00;29.18;;;;;;;2.69;75.60;100158.91;1711952;82;21216;-69
2021/04/18 00:16:47;;;;;;;51.58;29.72;;;;;;;2.63;75.63;100161.52;1716513;82;21182;-69
2021/04/18 00:19:14;;;;;;;48.98;29.52;;;;;;;2.59;75.72;100161.12;1711228;82;21540;-70
2021/04/18 00:21:41;;;;;;;47.53;29.10;;;;;;;2.60;75.87;100156.38;1714591;82;21156;-70
2021/04/18 00:24:09;;;;;;;41.35;22.13;;;;;;;2.65;76.01;100149.47;1710440;82;22256;-70
2021/04/18 00:26:36;;;;;;;43.02;27.25;;;;;;;2.73;76.17;100159.29;1711108;82;21604;-69
2021/04/18 00:29:03;;;;;;;36.08;21.10;;;;;;;2.81;76.19;100152.78;1715730;82;21227;-70
2021/04/18 00:31:31;;;;;;;45.58;25.57;;;;;;;2.90;76.23;100148.83;1714593;82;24766;-69
2021/04/18 00:33:58;;;;;;;;;;;;;;;2.99;76.25;100146.59;1718596;82;21195;-69
2021/04/18 00:36:25;;;;;;;41.33;24.47;;;;;;;3.04;76.34;100144.83;1709808;82;21384;-69
2021/04/18 00:38:52;;;;;;;31.93;19.50;;;;;;;3.05;76.16;100143.95;1711045;82;21175;-69
2021/04/18 00:41:19;;;;;;;37.15;17.87;;;;;;;3.05;76.27;100123.31;1713697;82;21184;-69
2021/04/18 00:43:46;;;;;;;34.00;20.17;;;;;;;3.08;76.40;100123.28;1722409;82;21689;-69
2021/04/18 00:46:14;;;;;;;28.83;16.95;;;;;;;3.11;76.42;100118.11;1717780;82;21230;-70
2021/04/18 00:48:45;;;;;;;29.10;16.20;;;;;;;3.14;76.49;100118.08;1713344;82;21218;-69
2021/04/18 00:51:15;;;;;;;36.77;21.75;;;;;;;3.18;76.57;100106.84;1708680;82;21164;-69
2021/04/18 00:53:42;;;;;;;43.60;22.35;;;;;;;3.26;76.51;100117.93;1706702;82;21158;-69
2021/04/18 00:56:11;;;;;;;26.17;16.45;;;;;;;3.27;76.51;100111.03;1706805;82;21234;-69
2021/04/18 00:58:39;;;;;;;42.53;20.43;;;;;;;3.33;76.59;100109.27;1704328;82;21373;-69
2021/04/18 01:01:07;;;;;;;24.18;13.53;;;;;;;3.40;76.57;100100.16;1676819;82;21568;-70
2021/04/18 01:03:35;;;;;;;26.87;14.55;;;;;;;3.40;76.40;100111.77;1701781;82;21216;-70
2021/04/18 01:06:04;;;;;;;33.90;16.10;;;;;;;3.41;76.57;100113.47;1700965;82;21190;-69
2021/04/18 01:08:31;;;;;;;23.83;15.15;;;;;;;3.49;76.65;100119.39;1677700;83;21657;-70
2021/04/18 01:10:58;;;;;;;31.62;18.27;;;;;;;3.54;76.66;100115.88;1701988;82;21199;-69
2021/04/18 01:13:25;;;;;;;30.32;16.55;;;;;;;3.58;76.60;100108.53;1704386;82;21228;-70
2021/04/18 01:15:52;;;;;;;30.65;16.10;;;;;;;3.58;76.55;100116.69;1696961;82;21590;-69
2021/04/18 01:18:19;;;;;;;17.45;11.22;;;;;;;3.55;76.48;100110.27;1681897;84;21213;-69
2021/04/18 01:20:47;;;;;;;19.45;12.37;;;;;;;3.47;76.81;100106.48;1702193;82;21235;-70
2021/04/18 01:23:14;;;;;;;23.85;12.85;;;;;;;3.46;76.83;100105.23;1678574;83;21175;-70
2021/04/18 01:25:42;;;;;;;19.42;12.07;;;;;;;3.45;76.84;100099.66;1683523;84;21221;-70
2021/04/18 01:28:10;;;;;;;25.82;13.00;;;;;;;3.44;77.01;100099.22;1689098;84;21571;-70
2021/04/18 01:30:37;;;;;;;19.73;12.00;;;;;;;3.43;77.14;100096.23;1683624;84;21057;-70
2021/04/18 01:33:05;;;;;;;24.35;14.20;;;;;;;3.38;77.30;100101.88;1687078;83;21620;-70
2021/04/18 01:35:32;;;;;;;23.38;13.10;;;;;;;3.32;77.19;100104.95;1687304;83;21621;-70
2021/04/18 01:38:00;;;;;;;22.40;15.05;;;;;;;3.28;77.43;100099.42;1707033;83;21231;-70
2021/04/18 01:40:27;;;;;;;25.05;16.12;;;;;;;3.22;77.24;100107.65;1704116;83;21277;-70
2021/04/18 01:42:54;;;;;;;27.98;15.75;;;;;;;3.18;77.75;100098.25;1705082;82;25422;-70
2021/04/18 01:45:23;;;;;;;23.38;16.32;;;;;;;3.13;77.29;100107.31;1708331;82;21226;-70
2021/04/18 01:47:50;;;;;;;25.05;15.90;;;;;;;3.08;77.36;100100.05;1706363;83;21174;-70
2021/04/18 01:50:19;;;;;;;28.52;16.37;;;;;;;3.06;77.39;100103.11;1702073;83;22296;-70
2021/04/18 01:52:48;;;;;;;28.57;18.23;;;;;;;3.04;77.45;100098.39;1704694;82;21199;-70
2021/04/18 01:55:17;;;;;;;28.12;17.67;;;;;;;3.02;77.46;100100.12;1684573;83;21180;-70
2021/04/18 01:57:44;;;;;;;31.20;18.40;;;;;;;3.05;77.50;100105.25;1691497;83;21171;-70
2021/04/18 02:00:13;;;;;;;34.65;19.05;;;;;;;3.06;77.51;100114.72;1692986;83;21559;-70
2021/04/18 02:02:41;;;;;;;26.07;17.40;;;;;;;3.11;77.55;100118.96;1714208;81;22127;-70
2021/04/18 02:05:10;;;;;;;29.23;16.15;;;;;;;3.17;77.56;100118.05;1716145;82;21669;-70
2021/04/18 02:07:40;;;;;;;31.87;17.95;;;;;;;3.17;77.53;100118.05;1714321;82;22202;-70
2021/04/18 02:10:08;;;;;;;29.45;15.98;;;;;;;3.14;77.53;100123.23;1722289;81;21585;-70
2021/04/18 02:12:36;;;;;;;23.57;16.20;;;;;;;3.20;77.62;100124.45;1719186;81;22179;-70
2021/04/18 02:15:04;;;;;;;;;;;;;;;3.19;77.92;100121.44;1721409;81;22167;-70
2021/04/18 02:17:31;;;;;;;32.70;15.30;;;;;;;3.15;77.69;100122.36;1706125;82;20239;-69
2021/04/18 02:19:58;;;;;;;25.40;15.68;;;;;;;3.14;77.71;100128.40;1694214;83;21202;-69
2021/04/18 02:22:25;;;;;;;24.65;16.12;;;;;;;3.17;77.87;100132.23;1691350;83;21203;-70
2021/04/18 02:24:52;;;;;;;25.57;15.28;;;;;;;3.18;77.85;100125.34;1694191;83;21131;-70
2021/04/18 02:27:20;;;;;;;24.95;14.33;;;;;;;3.15;77.81;100124.94;1696852;83;21309;-70
2021/04/18 02:29:47;;;;;;;25.92;13.25;;;;;;;3.15;77.98;100118.48;1699545;83;21701;-70
2021/04/18 02:32:14;;;;;;;24.27;14.25;;;;;;;3.20;77.88;100110.27;1695107;83;21179;-69
2021/04/18 02:34:41;;;;;;;22.40;13.70;;;;;;;3.27;78.02;100111.89;1694326;83;21256;-69
2021/04/18 02:37:08;;;;;;;24.60;13.62;;;;;;;3.31;77.96;100104.98;1696429;83;21634;-69
2021/04/18 02:39:35;;;;;;;25.02;12.47;;;;;;;3.33;77.87;100105.80;1694949;83;21171;-70
2021/04/18 02:42:02;;;;;;;23.35;11.60;;;;;;;3.33;77.92;100116.13;1691110;83;21211;-69
2021/04/18 02:44:29;;;;;;;;;;;;;;;3.41;78.08;100112.17;1673770;84;21215;-69
2021/04/18 02:46:56;;;;;;;20.45;12.20;;;;;;;3.46;78.06;100114.27;1696384;83;20298;-69
2021/04/18 02:49:24;;;;;;;24.23;11.43;;;;;;;3.45;77.93;100115.16;1692492;83;21171;-69
2021/04/18 02:51:51;;;;;;;19.77;11.10;;;;;;;3.43;77.88;100116.89;1704693;83;21666;-69
2021/04/18 02:54:19;;;;;;;22.77;10.78;;;;;;;3.42;78.03;100112.58;1706620;83;21220;-69
2021/04/18 02:56:46;;;;;;;20.88;9.78;;;;;;;3.42;77.89;100110.00;1711034;83;21187;-69
2021/04/18 02:59:13;;;;;;;17.75;9.73;;;;;;;3.41;78.03;100109.59;1702584;82;21187;-69
2021/04/18 03:01:40;;;;;;;18.87;9.65;;;;;;;3.42;78.07;100112.58;1713878;82;21170;-69
2021/04/18 03:04:08;;;;;;;17.62;9.78;;;;;;;3.43;78.10;100106.56;1704066;83;21199;-69
2021/04/18 03:06:35;;;;;;;22.52;10.00;;;;;;;3.46;78.09;100111.69;1735361;81;21697;-69
2021/04/18 03:09:04;;;;;;;15.83;10.03;;;;;;;3.47;78.09;100103.06;1707628;83;21183;-69
2021/04/18 03:11:31;;;;;;;21.23;10.10;;;;;;;3.47;78.09;100101.77;1710389;83;21631;-69
2021/04/18 03:13:58;;;;;;;16.42;9.75;;;;;;;3.47;78.17;100100.03;1733555;81;21184;-69
2021/04/18 03:16:25;;;;;;;17.48;9.53;;;;;;;3.49;78.18;100101.32;1733580;81;21206;-69
2021/04/18 03:18:52;;;;;;;17.10;9.08;;;;;;;3.55;78.39;100103.38;1730752;81;21200;-69
2021/04/18 03:21:19;;;;;;;16.70;9.40;;;;;;;3.64;78.43;100099.85;1719476;82;21235;-69
2021/04/18 03:23:46;;;;;;;17.35;9.25;;;;;;;3.70;78.29;100098.92;1717338;82;21221;-69
2021/04/18 03:26:13;;;;;;;21.35;9.00;;;;;;;3.72;78.21;100094.13;1739977;81;21156;-70
2021/04/18 03:28:40;;;;;;;16.93;9.85;;;;;;;3.74;78.21;100093.67;1709305;83;21284;-70
2021/04/18 03:31:07;;;;;;;18.05;10.13;;;;;;;3.76;78.20;100095.80;1709942;83;21624;-70
2021/04/18 03:33:34;;;;;;;;;;;;;;;3.77;78.25;100088.46;1708326;83;21395;-70
2021/04/18 03:36:02;;;;;;;15.15;9.60;;;;;;;3.81;78.42;100086.27;1733932;81;20299;-69
2021/04/18 03:38:29;;;;;;;;;;;;;;;3.88;78.32;100087.47;1733132;81;21705;-70
2021/04/18 03:40:56;;;;;;;22.17;10.13;;;;;;;3.88;78.26;100084.89;1698187;83;21681;-70
2021/04/18 03:43:22;;;;;;;17.98;9.25;;;;;;;3.83;78.12;100085.38;1723712;82;21712;-71
2021/04/18 03:45:49;;;;;;;17.90;9.85;;;;;;;3.79;78.23;100090.59;1709883;83;21079;-71
2021/04/18 03:48:16;;;;;;;18.82;9.35;;;;;;;3.82;78.34;100094.87;1709336;83;21192;-71
2021/04/18 03:50:43;;;;;;;18.17;10.10;;;;;;;3.85;78.43;100091.39;1709796;83;21180;-71
2021/04/18 03:53:10;;;;;;;21.80;10.15;;;;;;;3.95;78.67;100095.53;1689262;83;21272;-71
2021/04/18 03:55:37;;;;;;;23.20;9.33;;;;;;;4.06;78.68;100101.40;1672932;84;21225;-71
2021/04/18 03:58:04;;;;;;;17.57;9.60;;;;;;;4.13;78.35;100095.28;1676654;84;21261;-71
2021/04/18 04:00:31;;;;;;;19.15;10.15;;;;;;;4.14;78.26;100104.73;1684699;84;21135;-71
2021/04/18 04:02:58;;;;;;;;;;;;;;;4.14;78.27;100106.02;1681649;84;21211;-70
2021/04/18 04:05:25;;;;;;;18.57;9.98;;;;;;;4.24;78.43;100108.05;1737533;81;21162;-71
2021/04/18 04:07:52;;;;;;;17.82;9.98;;;;;;;4.31;78.39;100098.45;1735975;81;21612;-71
2021/04/18 04:10:19;;;;;;;14.10;9.03;;;;;;;4.39;78.39;100108.23;1733194;81;21232;-71
2021/04/18 04:12:46;;;;;;;17.20;9.13;;;;;;;4.51;78.58;100095.55;1738212;81;21182;-71
2021/04/18 04:15:14;;;;;;;20.57;9.23;;;;;;;4.64;78.51;100100.48;1736912;81;21590;-70
2021/04/18 04:17:41;;;;;;;17.12;8.75;;;;;;;4.73;78.46;100096.89;1728802;81;22177;-73
2021/04/18 04:20:10;;;;;;;16.32;7.72;;;;;;;4.86;78.52;100091.06;1733736;81;21576;-70
2021/04/18 04:22:37;;;;;;;15.13;8.78;;;;;;;4.91;78.08;100096.57;1731000;81;21026;-72
2021/04/18 04:25:05;;;;;;;16.57;9.13;;;;;;;4.84;77.80;100094.96;1733679;81;21254;-71
2021/04/18 04:27:32;;;;;;;18.80;9.03;;;;;;;4.79;77.86;100100.69;1727371;81;21170;-71
2021/04/18 04:29:59;;;;;;;15.68;9.00;;;;;;;4.84;78.04;100095.41;1735760;81;21233;-71
2021/04/18 04:32:26;;;;;;;16.35;8.55;;;;;;;4.93;78.14;100091.38;1736148;81;21187;-71
2021/04/18 04:34:54;;;;;;;14.55;8.35;;;;;;;5.07;78.19;100095.86;1733492;81;21153;-71
2021/04/18 04:37:21;;;;;;;15.95;8.33;;;;;;;5.23;78.33;100081.31;1732548;81;21208;-71
2021/04/18 04:39:48;;;;;;;14.93;7.83;;;;;;;5.71;78.20;100091.55;1741575;81;21586;-72
2021/04/18 04:42:15;;;;;;;13.95;9.00;;;;;;;6.21;78.20;100099.97;1736655;81;21701;-72
2021/04/18 04:44:42;;;;;;;19.95;8.50;;;;;;;6.91;78.22;100086.53;1733450;81;21196;-72
2021/04/18 04:47:09;;;;;;;12.73;8.23;;;;;;;7.70;78.18;100089.13;1733023;81;21202;-72
2021/04/18 04:49:36;;;;;;;13.35;7.62;;;;;;;8.44;77.53;100085.55;1734517;81;21051;-72
2021/04/18 04:52:09;;;;;;;18.85;8.35;;;;;;;9.04;77.05;100094.78;1739476;78;21271;-72
2021/04/18 04:54:34;;;;;;;12.37;7.00;;;;;;;9.55;76.85;100092.53;1744310;81;21195;-72
2021/04/18 04:57:01;;;;;;;10.72;7.05;;;;;;;10.04;76.94;100089.34;1749802;81;21144;-72
2021/04/18 04:59:28;;;;;;;11.20;6.92;;;;;;;10.66;77.31;100085.59;1745770;80;21150;-70
2021/04/18 05:01:55;;;;;;;13.00;6.03;;;;;;;11.33;77.29;100083.98;1750498;81;21558;-70
2021/04/18 05:04:22;;;;;;;12.03;6.83;;;;;;;11.91;76.79;100091.44;1731493;81;21151;-71
2021/04/18 05:06:49;;;;;;;10.50;6.20;;;;;;;12.09;75.78;100087.94;1737204;81;21280;-71
2021/04/18 05:09:16;;;;;;;12.18;6.35;;;;;;;12.29;76.22;100086.53;1725833;82;21656;-70
2021/04/18 05:11:43;;;;;;;10.48;6.65;;;;;;;12.37;74.95;100091.37;1731732;81;21219;-70
2021/04/18 05:14:10;;;;;;;10.70;7.30;;;;;;;12.03;74.47;100096.08;1739092;81;21270;-70
2021/04/18 05:16:37;;;;;;;11.33;7.37;;;;;;;11.91;75.00;100100.59;1737215;81;21152;-70
2021/04/18 05:19:04;;;;;;;8.60;5.83;;;;;;;12.02;75.45;100103.09;1726442;82;21450;-71
2021/04/18 05:21:31;;;;;;;9.33;5.80;;;;;;;12.60;76.25;100103.34;1728513;81;21185;-70
2021/04/18 05:23:58;;;;;;;18.07;6.20;;;;;;;13.11;75.91;100104.27;1733788;81;21209;-71
2021/04/18 05:26:25;;;;;;;16.32;6.25;;;;;;;13.78;76.31;100097.70;1731751;81;21568;-71
2021/04/18 05:28:53;;;;;;;11.63;6.45;;;;;;;14.48;75.81;100091.58;1733832;81;21176;-71
2021/04/18 05:31:22;;;;;;;14.40;6.53;;;;;;;14.79;75.04;100097.28;1732687;81;21825;-71
2021/04/18 05:33:49;;;;;;;10.72;6.42;;;;;;;14.97;74.82;100093.55;1735497;81;21156;-70
2021/04/18 05:36:17;;;;;;;10.68;5.80;;;;;;;15.31;74.79;100092.83;1727296;81;21056;-71
2021/04/18 05:38:44;;;;;;;6.95;5.40;;;;;;;15.70;74.54;100091.34;1736509;80;21308;-71
2021/04/18 05:41:12;;;;;;;9.95;5.15;;;;;;;16.01;74.22;100089.40;1735581;81;21156;-71
2021/04/18 05:43:39;;;;;;;13.93;5.00;;;;;;;16.11;73.81;100091.83;1735526;81;21212;-71
2021/04/18 05:46:06;;;;;;;10.08;5.00;;;;;;;16.00;73.20;100095.14;1733552;81;22337;-71
2021/04/18 05:48:33;;;;;;;12.43;5.35;;;;;;;15.69;73.02;100093.61;1733583;81;21611;-71
2021/04/18 05:51:00;;;;;;;;;;;;;;;15.66;73.29;100092.45;1738309;81;21186;-71
2021/04/18 05:53:27;;;;;;;;;;;;;;;15.94;72.74;100088.12;1729452;81;20309;-71
2021/04/18 05:55:54;;;;;;;11.00;5.28;;;;;;;16.43;72.94;100083.61;1733212;81;22808;-71
2021/04/18 05:58:21;;;;;;;11.95;5.75;;;;;;;17.04;72.76;100087.45;1741477;81;21672;-71
2021/04/18 06:00:48;;;;;;;9.30;5.97;;;;;;;17.51;72.32;100090.39;1725891;81;21638;-71
2021/04/18 06:03:15;;;;;;;9.23;5.03;;;;;;;17.77;71.77;100085.89;1727073;81;21048;-71
2021/04/18 06:05:43;;;;;;;11.50;5.35;;;;;;;18.15;71.78;100090.23;1731337;81;21143;-71
2021/04/18 06:08:10;;;;;;;9.38;5.05;;;;;;;18.49;71.47;100082.84;1735955;81;21214;-71
2021/04/18 06:10:37;;;;;;;9.88;5.10;;;;;;;18.74;70.89;100082.36;1730539;81;21151;-71
2021/04/18 06:13:04;;;;;;;12.30;5.87;;;;;;;18.92;70.48;100079.62;1734315;81;21187;-71
2021/04/18 06:15:31;;;;;;;7.78;4.95;;;;;;;18.96;69.71;100085.06;1696156;81;21251;-71
2021/04/18 06:17:58;;;;;;;8.15;4.83;;;;;;;18.90;69.51;100082.86;1739303;81;21220;-71
2021/04/18 06:20:25;;;;;;;;;;;;;;;18.72;68.53;100078.95;1743041;81;21297;-70
2021/04/18 06:22:51;;;;;;;8.48;5.60;;;;;;;18.22;67.68;100088.84;1735102;81;20800;-70
2021/04/18 06:25:19;;;;;;;5.80;4.33;;;;;;;17.86;67.68;100082.62;1737105;81;21255;-71
2021/04/18 06:27:46;;;;;;;5.97;4.75;;;;;;;17.77;67.70;100088.53;1730125;81;21172;-71
2021/04/18 06:30:15;;;;;;;6.12;4.42;;;;;;;17.46;66.61;100093.34;1732859;81;21143;-71
2021/04/18 06:32:43;;;;;;;8.40;5.90;;;;;;;16.97;65.93;100088.80;1734436;81;21291;-70
2021/04/18 06:35:11;;;;;;;7.42;5.45;;;;;;;16.62;66.31;100093.79;1727869;81;21698;-71
2021/04/18 06:37:38;;;;;;;6.40;5.12;;;;;;;16.42;66.47;100089.84;1740847;81;21210;-71
2021/04/18 06:40:07;;;;;;;;;;;;;;;16.31;66.50;100094.01;1734965;81;21294;-71
2021/04/18 06:42:37;;;;;;;8.55;5.53;;;;;;;16.16;64.87;100102.92;1733905;81;20222;-71
2021/04/18 06:45:08;;;;;;;7.72;5.30;;;;;;;15.77;65.54;100108.94;1736667;81;21434;-71
2021/04/18 06:47:38;;;;;;;6.17;5.15;;;;;;;15.65;64.72;100105.22;1731467;81;21665;-72
2021/04/18 06:50:09;;;;;;;7.15;5.10;;;;;;;15.52;65.23;100110.41;1722387;81;21626;-71
2021/04/18 06:52:36;;;;;;;8.48;5.28;;;;;;;15.51;65.27;100109.18;1744031;81;21111;-71
2021/04/18 06:55:06;;;;;;;9.88;5.22;;;;;;;15.45;65.00;100112.55;1748804;81;21219;-71
2021/04/18 06:57:35;;;;;;;8.45;5.10;;;;;;;15.29;64.28;100117.09;1750265;81;21617;-71
2021/04/18 07:00:05;;;;;;;7.72;4.80;;;;;;;15.13;64.08;100108.42;1744451;81;21251;-71
2021/04/18 07:02:34;;;;;;;7.85;5.03;;;;;;;14.87;63.96;100105.56;1744511;81;21211;-71
2021/04/18 07:05:11;;;;;;;9.08;4.97;;;;;;;14.89;63.99;100106.30;1748746;81;21246;-72
2021/04/18 07:07:44;;;;;;;9.38;5.05;;;;;;;14.93;64.46;100102.56;1754775;81;21266;-71
2021/04/18 07:10:32;;;;;;;10.35;5.33;;;;;;;15.16;64.62;100108.23;1746724;81;21664;-71
2021/04/18 07:13:11;;;;;;;6.75;4.97;;;;;;;15.38;64.44;100115.20;1748425;81;21226;-69
2021/04/18 07:15:42;;;;;;;7.17;4.58;;;;;;;15.55;64.03;100114.65;1744982;81;21649;-72
2021/04/18 07:18:16;;;;;;;6.08;4.50;;;;;;;15.38;63.75;100115.20;1748308;81;22421;-73
2021/04/18 07:20:52;;;;;;;7.28;5.87;;;;;;;15.24;63.97;100119.14;1717677;81;21171;-73
2021/04/18 07:26:26;;;;;;;14.00;8.67;;;;;;;15.06;63.77;100117.60;1736863;79;28197;-70
2021/04/18 07:29:15;;;;;;;9.83;6.22;;;;;;;15.07;63.85;100120.59;1707796;82;21193;-69
2021/04/18 07:31:43;;;;;;;8.45;5.50;;;;;;;15.08;63.90;100124.94;1680377;84;21230;-71
2021/04/18 07:34:16;;;;;;;10.58;6.97;;;;;;;15.11;63.91;100121.66;1698235;83;21069;-70
2021/04/18 07:36:47;;;;;;;16.17;7.80;;;;;;;15.07;63.34;100121.91;1648841;85;21130;-69
2021/04/18 07:39:17;;;;;;;7.03;5.22;;;;;;;14.94;63.38;100121.81;1663405;83;21692;-73
2021/04/18 07:41:49;;;;;;;7.78;4.80;;;;;;;14.83;63.34;100119.81;1695178;83;22681;-71
2021/04/18 07:44:18;;;;;;;6.28;5.03;;;;;;;14.79;63.47;100124.87;1622302;85;22112;-69
2021/04/18 07:46:50;;;;;;;7.35;5.60;;;;;;;14.72;63.23;100118.27;1693361;83;21837;-71
2021/04/18 07:49:19;;;;;;;7.33;5.45;;;;;;;14.71;63.45;100129.73;1682117;83;22060;-72
2021/04/18 07:51:49;;;;;;;7.58;5.95;;;;;;;14.81;63.56;100121.67;1700641;83;21231;-71
2021/04/18 07:54:18;;;;;;;9.25;5.62;;;;;;;15.00;63.59;100124.91;1693433;83;21675;-70
2021/04/18 07:56:49;;;;;;;7.90;5.15;;;;;;;15.05;62.94;100123.81;1668005;83;21239;-70
2021/04/18 07:59:18;;;;;;;8.48;5.47;;;;;;;14.89;62.73;100131.27;1686996;83;21323;-68
2021/04/18 08:01:45;;;;;;;8.73;5.37;;;;;;;14.68;62.34;100133.86;1694698;82;21328;-68
2021/04/18 08:04:12;;;;;;;7.30;5.70;;;;;;;14.43;62.14;100129.97;1691107;82;21149;-68
2021/04/18 08:06:41;;;;;;;7.08;4.90;;;;;;;14.21;62.16;100126.85;1697372;82;21227;-68
2021/04/18 08:09:21;;;;;;;5.78;4.80;;;;;;;14.15;62.28;100141.17;1697909;82;21214;-69
2021/04/18 08:12:13;;;;;;;7.17;4.95;;;;;;;14.27;62.28;100137.01;1693592;82;21053;-68
2021/04/18 08:14:47;;;;;;;7.92;5.05;;;;;;;14.53;62.16;100137.72;1695058;82;22035;-69
2021/04/18 08:17:19;;;;;;;8.35;4.97;;;;;;;14.64;61.43;100134.95;1710090;81;21612;-70
2021/04/18 08:21:05;;;;;;;5.87;4.50;;;;;;;14.69;61.28;100131.59;1794413;77;22463;-68
2021/04/18 08:23:41;;;;;;;5.65;3.95;;;;;;;14.64;61.52;100132.33;1752896;80;21611;-69
2021/04/18 08:29:03;;;;;;;7.05;4.97;;;;;;;14.43;61.14;100113.36;1843115;77;22589;-68
2021/04/18 08:31:31;;;;;;;7.62;4.78;;;;;;;14.43;61.14;100113.36;1814025;78;21058;-69
2021/04/18 08:34:03;;;;;;;5.22;4.62;;;;;;;14.62;60.89;100130.24;1814974;77;21386;-69
2021/04/18 08:36:35;;;;;;;5.37;4.40;;;;;;;14.72;60.83;100130.94;1811813;78;21520;-68
2021/04/18 08:39:10;;;;;;;5.75;4.70;;;;;;;14.82;60.65;100132.59;1815548;77;21095;-69
2021/04/18 08:41:50;;;;;;;9.53;5.70;;;;;;;15.03;60.56;100134.88;1750378;80;21084;-70
2021/04/18 08:44:31;;;;;;;8.03;4.92;;;;;;;15.15;60.45;100114.41;1745781;80;21717;-69
2021/04/18 08:47:05;;;;;;;7.12;4.80;;;;;;;15.21;59.61;100119.33;1749657;80;22197;-68
2021/04/18 08:49:48;;;;;;;8.50;4.90;;;;;;;15.28;59.86;100118.01;1751179;80;21689;-68
2021/04/18 08:52:33;;;;;;;6.55;5.12;;;;;;;15.31;59.76;100116.50;1772882;79;21106;-68
2021/04/18 08:55:08;;;;;;;6.60;5.03;;;;;;;15.32;59.41;100114.27;1776098;79;21188;-66
2021/04/18 08:57:44;;;;;;;6.22;5.10;;;;;;;15.32;59.72;100112.95;1830337;77;22417;-66
2021/04/18 09:00:16;;;;;;;6.28;4.70;;;;;;;15.32;59.96;100117.34;1798223;78;21013;-69
2021/04/18 09:02:46;;;;;;;7.50;4.58;;;;;;;15.31;59.90;100112.55;1797021;78;21263;-68
2021/04/18 09:05:19;;;;;;;6.90;5.60;;;;;;;15.36;59.66;100115.77;1797562;78;21594;-67
2021/04/18 09:07:44;;;;;;;7.33;5.12;;;;;;;15.31;59.45;100109.09;1779871;78;21067;-68
2021/04/18 09:10:12;;;;;;;;;;;;;;;15.24;59.60;100116.99;1799844;77;21109;-68
2021/04/18 09:12:39;;;;;;;7.87;5.45;;;;;;;15.14;59.41;100110.11;1795993;78;20233;-68
2021/04/18 09:15:09;;;;;;;6.97;5.55;;;;;;;15.00;59.36;100111.77;1763273;80;22584;-68
2021/04/18 09:17:38;;;;;;;6.40;5.35;;;;;;;15.09;59.68;100117.42;1746251;80;21011;-67
2021/04/18 09:20:11;;;;;;;8.73;6.10;;;;;;;15.11;59.33;100114.23;1738074;80;21057;-67
2021/04/18 09:22:40;;;;;;;8.43;5.97;;;;;;;15.04;59.53;100116.84;1752046;80;21706;-68
2021/04/18 09:25:19;;;;;;;15.13;6.22;;;;;;;15.15;59.92;100103.89;1766865;78;21189;-68
2021/04/18 09:27:52;;;;;;;10.03;6.60;;;;;;;15.36;59.40;100121.02;1734301;80;22261;-68
2021/04/18 09:30:26;;;;;;;6.95;5.72;;;;;;;15.36;59.34;100118.39;1765054;80;21566;-68
2021/04/18 09:35:35;;;;;;;9.78;5.60;;;;;;;15.71;59.30;100112.80;1825984;76;22577;-67
2021/04/18 09:38:05;;;;;;;8.38;5.50;;;;;;;15.66;59.36;100117.46;1798421;78;21103;-67
2021/04/18 09:40:36;;;;;;;7.25;5.20;;;;;;;15.68;59.14;100110.33;1796952;78;21196;-67
2021/04/18 09:43:06;;;;;;;9.73;5.75;;;;;;;15.54;58.72;100120.83;1800306;78;21081;-68
2021/04/18 09:45:36;;;;;;;8.00;5.15;;;;;;;15.42;59.19;100120.64;1802252;78;21012;-68
2021/04/18 09:48:15;;;;;;;9.73;5.53;;;;;;;15.54;59.45;100122.15;1800524;78;21056;-68
2021/04/18 09:50:43;;;;;;;6.67;5.08;;;;;;;15.79;59.17;100123.66;1798590;78;20961;-67
2021/04/18 09:53:34;;;;;;;;;;;;;;;15.89;58.89;100124.79;1802425;78;23546;-67
2021/04/18 09:56:05;;;;;;;8.68;5.67;;;;;;;15.83;58.27;100135.71;1675151;84;20140;-67
2021/04/18 09:58:39;;;;;;;6.97;4.95;;;;;;;15.69;58.48;100127.83;1675613;84;21165;-67
2021/04/18 10:01:27;;;;;;;5.90;4.92;;;;;;;15.62;58.53;100129.10;1676520;84;21233;-67
2021/04/18 10:03:55;;;;;;;7.20;5.17;;;;;;;15.69;58.63;100125.20;1674973;83;21633;-67
2021/04/18 10:06:23;;;;;;;8.15;5.03;;;;;;;15.74;58.07;100129.71;1668570;84;21257;-66
2021/04/18 10:09:04;;;;;;;7.65;5.03;;;;;;;15.61;57.92;100135.31;1679400;84;21698;-66
2021/04/18 10:11:30;;;;;;;8.48;5.45;;;;;;;15.53;57.82;100134.94;1671572;84;21075;-67
2021/04/18 10:14:01;;;;;;;12.15;5.08;;;;;;;15.29;57.82;100138.14;1672585;84;29785;-67
2021/04/18 10:16:40;;;;;;;6.42;5.00;;;;;;;15.10;57.81;100141.48;1673262;84;21156;-67
2021/04/18 10:19:21;;;;;;;13.38;5.75;;;;;;;14.88;57.58;100146.68;1671975;84;21479;-67
2021/04/18 10:22:10;;;;;;;7.15;5.00;;;;;;;14.64;57.84;100155.98;1669399;84;21237;-68
2021/04/18 10:24:48;;;;;;;6.03;4.47;;;;;;;14.66;58.25;100155.42;1676567;84;21261;-67
2021/04/18 10:27:24;;;;;;;6.78;5.40;;;;;;;14.73;58.03;100153.69;1673164;84;21569;-67
2021/04/18 10:29:51;;;;;;;8.28;4.50;;;;;;;14.71;57.88;100149.45;1673305;84;21058;-66
2021/04/18 10:32:20;;;;;;;11.18;5.83;;;;;;;14.71;57.93;100141.56;1676086;84;23533;-66
2021/04/18 10:34:50;;;;;;;11.43;5.05;;;;;;;14.81;58.12;100141.86;1675394;84;21201;-66
2021/04/18 10:37:17;;;;;;;7.08;5.28;;;;;;;14.92;57.85;100145.55;1679949;84;21144;-67
2021/04/18 10:39:44;;;;;;;5.95;4.25;;;;;;;14.99;57.83;100145.58;1676155;84;21264;-67
2021/04/18 10:42:11;;;;;;;;;;;;;;;15.09;57.77;100144.56;1682978;84;21050;-67
2021/04/18 10:44:39;;;;;;;5.47;4.33;;;;;;;15.12;57.36;100143.53;1674736;84;21417;-67
2021/04/18 10:47:12;;;;;;;9.10;4.90;;;;;;;15.17;57.65;100138.85;1676409;84;21183;-67
2021/04/18 10:49:38;;;;;;;6.80;4.45;;;;;;;15.29;57.42;100140.77;1675146;84;21265;-67
2021/04/18 10:52:05;;;;;;;6.78;4.03;;;;;;;15.31;57.68;100140.18;1674518;84;21268;-68
2021/04/18 10:54:32;;;;;;;6.55;4.70;;;;;;;15.56;57.46;100142.65;1671996;83;21188;-67
2021/04/18 10:56:59;;;;;;;7.25;4.50;;;;;;;15.54;56.91;100148.47;1637659;85;23211;-67
2021/04/18 10:59:26;;;;;;;6.12;3.77;;;;;;;15.33;56.64;100142.26;1674425;84;21068;-68
2021/04/18 11:01:53;;;;;;;7.95;4.00;;;;;;;15.11;56.62;100149.27;1673059;84;27247;-67
2021/04/18 11:04:21;;;;;;;9.08;4.35;;;;;;;14.96;57.00;100152.34;1671426;84;21263;-67
2021/04/18 11:06:48;;;;;;;8.00;4.72;;;;;;;15.03;57.30;100154.61;1674822;84;21232;-67
2021/04/18 11:09:15;;;;;;;;;;;;;;;15.06;56.80;100157.05;1670782;84;21642;-68
2021/04/18 11:11:42;;;;;;;6.85;5.08;;;;;;;15.05;56.87;100152.73;1642731;85;20680;-68
2021/04/18 11:14:09;;;;;;;10.00;5.45;;;;;;;14.96;56.92;100149.71;1642262;86;21311;-67
2021/04/18 11:16:36;;;;;;;5.40;4.70;;;;;;;14.96;56.95;100148.87;1676424;84;21637;-67
2021/04/18 11:19:03;;;;;;;8.63;5.42;;;;;;;14.99;56.95;100144.74;1668612;84;21180;-67
2021/04/18 11:21:31;;;;;;;9.25;5.50;;;;;;;15.12;56.80;100151.42;1675961;84;21698;-67
2021/04/18 11:23:58;;;;;;;6.37;4.92;;;;;;;15.26;56.84;100148.81;1651820;85;21044;-67
2021/04/18 11:26:26;;;;;;;6.40;4.53;;;;;;;15.39;56.90;100147.14;1686117;84;21177;-67
2021/04/18 11:28:56;;;;;;;9.75;4.60;;;;;;;15.43;56.74;100148.67;1670316;84;21216;-67
2021/04/18 11:31:25;;;;;;;11.03;6.95;;;;;;;15.51;56.93;100147.34;1659486;85;21239;-67
2021/04/18 11:33:52;;;;;;;7.30;6.37;;;;;;;15.52;56.76;100147.26;1673530;84;21216;-67
2021/04/18 11:36:19;;;;;;;10.53;5.87;;;;;;;15.55;56.79;100146.23;1678832;84;21186;-67
2021/04/18 11:38:46;;;;;;;7.10;5.87;;;;;;;15.50;56.55;100150.92;1678374;84;21070;-68
2021/04/18 11:41:13;;;;;;;13.50;7.40;;;;;;;15.48;56.73;100146.21;1682267;84;21178;-67
2021/04/18 11:43:40;;;;;;;10.43;6.72;;;;;;;15.52;56.59;100151.69;1676424;84;21248;-67